createdAt,value
2023-03-02T00:01:47.998Z,82.51
2023-03-02T00:03:51.420Z,82.78
2023-03-02T00:05:56.449Z,83.27
2023-03-02T00:08:02.459Z,82.50
2023-03-02T00:10:06.118Z,83.29
2023-03-02T00:12:09.521Z,82.45
2023-03-02T00:14:12.588Z,83.10
2023-03-02T00:16:15.517Z,82.98
2023-03-02T00:18:18.465Z,82.92
2023-03-02T00:20:21.398Z,82.40
2023-03-02T00:22:24.343Z,82.85
2023-03-02T00:24:28.579Z,81.99
2023-03-02T00:26:34.867Z,81.75
2023-03-02T00:28:37.995Z,81.24
2023-03-02T00:30:40.978Z,81.90
2023-03-02T00:32:44.611Z,82.62
2023-03-02T00:34:47.619Z,82.22
2023-03-02T00:36:50.643Z,81.86
2023-03-02T00:38:53.558Z,82.12
2023-03-02T00:40:59.615Z,81.72
2023-03-02T00:43:02.881Z,82.26
2023-03-02T00:45:07.289Z,81.67
2023-03-02T00:47:10.357Z,83.29
2023-03-02T00:49:13.569Z,83.17
2023-03-02T00:51:16.798Z,82.57
2023-03-02T00:53:19.812Z,84.41
2023-03-02T00:55:22.827Z,84.40
2023-03-02T00:57:27.856Z,84.36
2023-03-02T00:59:32.035Z,84.61
2023-03-02T01:01:44.856Z,84.17
2023-03-02T01:03:47.926Z,83.28
2023-03-02T01:05:55.578Z,84.07
2023-03-02T01:07:58.490Z,83.12
2023-03-02T01:10:01.532Z,83.60
2023-03-02T01:12:06.152Z,85.69
2023-03-02T01:14:10.594Z,84.90
2023-03-02T01:16:14.033Z,86.13
2023-03-02T01:18:16.976Z,86.83
2023-03-02T01:20:20.243Z,86.10
2023-03-02T01:22:23.674Z,86.63
2023-03-02T01:24:26.664Z,86.76
2023-03-02T01:26:29.738Z,87.14
2023-03-02T01:28:33.074Z,86.06
2023-03-02T01:30:37.805Z,86.55
2023-03-02T01:32:40.849Z,87.16
2023-03-02T01:34:43.885Z,86.79
2023-03-02T01:36:46.886Z,88.27
2023-03-02T01:38:49.966Z,87.22
2023-03-02T01:40:53.483Z,87.36
2023-03-02T01:43:02.664Z,87.89
2023-03-02T01:45:06.906Z,88.13
2023-03-02T01:47:21.174Z,88.30
2023-03-02T01:49:38.154Z,88.79
2023-03-02T01:51:47.504Z,88.26
2023-03-02T01:53:54.641Z,87.53
2023-03-02T01:56:00.060Z,87.64
2023-03-02T01:58:04.749Z,86.69
2023-03-02T02:00:10.783Z,86.83
2023-03-02T02:02:18.112Z,87.24
2023-03-02T02:04:22.066Z,86.28
2023-03-02T02:06:29.479Z,85.45
2023-03-02T02:08:33.343Z,85.35
2023-03-02T02:10:37.894Z,85.48
2023-03-02T02:12:40.902Z,86.03
2023-03-02T02:14:47.312Z,86.00
2023-03-02T02:16:51.441Z,85.66
2023-03-02T02:18:56.422Z,86.27
2023-03-02T02:20:59.978Z,85.77
2023-03-02T02:23:14.224Z,86.74
2023-03-02T02:25:26.162Z,86.53
2023-03-02T02:27:34.331Z,85.90
2023-03-02T02:29:45.898Z,85.96
2023-03-02T02:31:53.986Z,85.47
2023-03-02T02:34:01.129Z,85.97
2023-03-02T02:36:08.183Z,85.13
2023-03-02T02:38:14.581Z,85.99
2023-03-02T02:40:21.252Z,87.04
2023-03-02T02:42:29.771Z,85.96
2023-03-02T02:44:34.654Z,85.79
2023-03-02T02:46:37.502Z,84.88
2023-03-02T02:48:40.646Z,84.19
2023-03-02T02:50:44.788Z,84.95
2023-03-02T02:52:54.052Z,84.65
2023-03-02T02:54:59.486Z,83.90
2023-03-02T02:57:04.602Z,84.39
2023-03-02T02:59:16.603Z,84.20
2023-03-02T03:01:27.561Z,83.69
2023-03-02T03:03:34.076Z,84.79
2023-03-02T03:05:40.373Z,84.15
2023-03-02T03:07:43.381Z,83.38
2023-03-02T03:09:49.151Z,84.87
2023-03-02T03:11:55.061Z,84.33
2023-03-02T03:14:09.912Z,84.96
2023-03-02T03:16:16.264Z,84.56
2023-03-02T03:18:25.052Z,85.83
2023-03-02T03:20:29.860Z,84.95
2023-03-02T03:22:35.170Z,85.43
2023-03-02T03:24:40.077Z,86.35
2023-03-02T03:26:43.622Z,86.02
2023-03-02T03:28:46.848Z,86.15
2023-03-02T03:30:50.156Z,84.64
2023-03-02T03:32:53.235Z,85.47
2023-03-02T03:34:57.665Z,84.32
2023-03-02T03:37:04.143Z,84.41
2023-03-02T03:39:11.503Z,86.07
2023-03-02T03:41:15.126Z,84.94
2023-03-02T03:43:18.452Z,84.91
2023-03-02T03:45:30.001Z,84.88
2023-03-02T03:47:33.803Z,83.95
2023-03-02T03:49:37.456Z,85.03
2023-03-02T03:51:43.707Z,84.67
2023-03-02T03:53:47.173Z,83.20
2023-03-02T03:55:50.917Z,84.64
2023-03-02T03:57:53.880Z,85.29
2023-03-02T03:59:57.182Z,84.79
2023-03-02T04:02:01.499Z,85.22
2023-03-02T04:04:11.495Z,84.86
2023-03-02T04:06:19.260Z,85.35
2023-03-02T04:08:24.213Z,84.24
2023-03-02T04:10:27.394Z,84.77
2023-03-02T04:12:31.520Z,85.22
2023-03-02T04:14:34.908Z,84.02
2023-03-02T04:16:38.268Z,84.70
2023-03-02T04:18:41.198Z,84.59
2023-03-02T04:20:44.184Z,83.91
2023-03-02T04:22:52.160Z,85.03
2023-03-02T04:24:57.058Z,84.88
2023-03-02T04:27:01.296Z,84.33
2023-03-02T04:29:05.322Z,84.56
2023-03-02T04:31:09.375Z,84.82
2023-03-02T04:33:12.766Z,84.28
2023-03-02T04:35:16.398Z,85.10
2023-03-02T04:37:19.357Z,85.54
2023-03-02T04:39:23.214Z,84.27
2023-03-02T04:41:29.598Z,84.13
2023-03-02T04:43:32.658Z,85.66
2023-03-02T04:45:35.683Z,85.72
2023-03-02T04:47:38.522Z,85.08
2023-03-02T04:49:41.577Z,84.96
2023-03-02T04:51:46.673Z,85.28
2023-03-02T04:53:49.534Z,85.44
2023-03-02T04:55:52.526Z,86.17
2023-03-02T04:57:57.034Z,84.39
2023-03-02T04:59:59.919Z,84.22
2023-03-02T05:02:03.555Z,85.33
2023-03-02T05:04:06.507Z,84.31
2023-03-02T05:06:10.554Z,85.41
2023-03-02T05:08:15.126Z,85.90
2023-03-02T05:10:19.604Z,86.60
2023-03-02T05:12:22.533Z,86.08
2023-03-02T05:14:27.638Z,85.15
2023-03-02T05:16:33.110Z,85.04
2023-03-02T05:18:36.404Z,85.48
2023-03-02T05:20:39.996Z,85.70
2023-03-02T05:22:43.215Z,85.55
2023-03-02T05:24:46.101Z,85.00
2023-03-02T05:26:49.089Z,84.76
2023-03-02T05:28:53.948Z,84.33
2023-03-02T05:30:58.807Z,85.47
2023-03-02T05:33:01.754Z,85.37
2023-03-02T05:35:05.275Z,85.88
2023-03-02T05:37:08.235Z,85.15
2023-03-02T05:39:11.642Z,86.43
2023-03-02T05:41:14.652Z,85.02
2023-03-02T05:43:20.435Z,85.76
2023-03-02T05:45:25.727Z,85.54
2023-03-02T05:47:30.044Z,85.29
2023-03-02T05:49:32.984Z,85.14
2023-03-02T05:51:36.021Z,85.62
2023-03-02T05:53:38.823Z,86.07
2023-03-02T05:55:41.784Z,86.12
2023-03-02T05:57:44.934Z,85.59
2023-03-02T05:59:47.882Z,85.31
2023-03-02T06:01:50.877Z,85.06
2023-03-02T06:03:56.059Z,86.24
2023-03-02T06:05:58.916Z,85.43
2023-03-02T06:08:02.279Z,84.83
2023-03-02T06:10:06.759Z,84.94
2023-03-02T06:12:09.893Z,85.79
2023-03-02T06:14:12.742Z,85.31
2023-03-02T06:16:15.815Z,84.95
2023-03-02T06:18:18.778Z,84.49
2023-03-02T06:20:23.277Z,84.58
2023-03-02T06:22:26.700Z,84.58
2023-03-02T06:24:29.691Z,84.58
2023-03-02T06:26:32.791Z,83.75
2023-03-02T06:28:49.818Z,84.75
2023-03-02T06:30:54.795Z,83.92
2023-03-02T06:32:57.769Z,82.54
2023-03-02T06:35:01.275Z,77.63
2023-03-02T06:37:05.700Z,75.89
2023-03-02T06:39:16.031Z,77.44
2023-03-02T06:41:19.054Z,75.28
2023-03-02T06:43:22.043Z,72.48
2023-03-02T06:45:25.032Z,71.21
2023-03-02T06:47:27.867Z,69.18
2023-03-02T06:49:31.089Z,64.64
2023-03-02T06:51:34.680Z,61.46
2023-03-02T06:53:39.067Z,58.76
2023-03-02T06:55:41.959Z,57.26
2023-03-02T06:57:45.115Z,56.12
2023-03-02T06:59:48.010Z,55.07
2023-03-02T07:01:52.101Z,52.42
2023-03-02T07:03:55.100Z,50.09
2023-03-02T07:05:58.068Z,48.50
2023-03-02T07:08:01.085Z,47.51
2023-03-02T07:10:06.516Z,47.72
2023-03-02T07:12:09.520Z,45.73
2023-03-02T07:14:12.567Z,45.07
2023-03-02T07:16:16.429Z,44.72
2023-03-02T07:18:19.367Z,43.31
2023-03-02T07:20:22.508Z,43.09
2023-03-02T07:22:25.477Z,41.90
2023-03-02T07:24:28.958Z,40.98
2023-03-02T07:26:33.835Z,40.66
2023-03-02T07:28:39.788Z,40.88
2023-03-02T07:30:42.879Z,39.22
2023-03-02T07:32:45.673Z,39.65
2023-03-02T07:34:48.612Z,40.11
2023-03-02T07:36:51.866Z,40.03
2023-03-02T07:38:55.345Z,39.55
2023-03-02T07:40:58.397Z,37.53
2023-03-02T07:43:02.912Z,36.64
2023-03-02T07:45:07.027Z,36.53
2023-03-02T07:47:10.067Z,36.22
2023-03-02T07:49:13.077Z,35.90
2023-03-02T07:51:16.279Z,35.66
2023-03-02T07:53:19.158Z,35.83
2023-03-02T07:55:22.589Z,35.38
2023-03-02T07:57:25.535Z,34.87
2023-03-02T07:59:30.078Z,34.91
2023-03-02T08:01:33.247Z,35.50
2023-03-02T08:03:36.558Z,34.96
2023-03-02T08:05:39.438Z,36.17
2023-03-02T08:07:42.998Z,36.41
2023-03-02T08:09:45.952Z,36.69
2023-03-02T08:11:48.947Z,35.08
2023-03-02T08:13:51.819Z,34.04
2023-03-02T08:16:02.062Z,35.14
2023-03-02T08:18:05.170Z,37.64
2023-03-02T08:20:09.569Z,37.60
2023-03-02T08:22:12.856Z,39.98
2023-03-02T08:24:15.721Z,37.22
2023-03-02T08:26:19.450Z,39.94
2023-03-02T08:28:23.334Z,39.71
2023-03-02T08:30:26.372Z,38.10
2023-03-02T08:32:31.179Z,41.33
2023-03-02T08:34:34.490Z,39.42
2023-03-02T08:36:37.471Z,40.12
2023-03-02T08:38:40.838Z,40.89
2023-03-02T08:40:43.770Z,39.30
2023-03-02T08:42:46.740Z,39.79
2023-03-02T08:44:49.744Z,40.40
2023-03-02T08:46:52.782Z,39.46
2023-03-02T08:48:57.437Z,36.83
2023-03-02T08:51:04.381Z,37.52
2023-03-02T08:53:07.472Z,39.85
2023-03-02T08:55:11.452Z,39.91
2023-03-02T08:57:14.542Z,36.83
2023-03-02T08:59:17.789Z,37.25
2023-03-02T09:01:23.482Z,38.20
2023-03-02T09:03:26.025Z,35.49
2023-03-02T09:05:30.369Z,36.22
2023-03-02T09:07:33.215Z,39.31
2023-03-02T09:09:36.286Z,39.50
2023-03-02T09:11:39.585Z,36.50
2023-03-02T09:13:42.716Z,35.40
2023-03-02T09:15:46.335Z,34.60
2023-03-02T09:17:49.488Z,36.43
2023-03-02T09:19:52.356Z,34.28
2023-03-02T09:21:56.947Z,36.64
2023-03-02T09:24:00.199Z,37.49
2023-03-02T09:26:03.493Z,36.18
2023-03-02T09:28:06.498Z,42.83
2023-03-02T09:30:10.899Z,37.78
2023-03-02T09:32:16.328Z,41.18
2023-03-02T09:34:19.011Z,40.30
2023-03-02T09:36:23.512Z,38.16
2023-03-02T09:38:27.984Z,38.60
2023-03-02T09:40:34.075Z,38.37
2023-03-02T09:42:54.954Z,37.24
2023-03-02T09:45:12.969Z,35.99
2023-03-02T09:47:34.795Z,36.79
2023-03-02T09:49:55.715Z,39.18
2023-03-02T09:52:11.929Z,38.06
2023-03-02T09:54:20.675Z,39.03
2023-03-02T09:56:25.082Z,37.46
2023-03-02T09:58:35.347Z,38.61
2023-03-02T10:00:42.724Z,35.97
2023-03-02T10:02:49.061Z,36.80
2023-03-02T10:04:54.808Z,35.38
2023-03-02T10:06:58.646Z,36.15
2023-03-02T10:09:01.944Z,36.74
2023-03-02T10:11:14.927Z,42.13
2023-03-02T10:13:26.058Z,40.34
2023-03-02T10:15:36.887Z,36.98
2023-03-02T10:17:53.136Z,33.61
2023-03-02T10:20:01.313Z,32.89
2023-03-02T10:22:16.189Z,32.16
2023-03-02T10:24:36.214Z,32.32
2023-03-02T10:26:43.485Z,30.93
2023-03-02T10:28:52.412Z,33.09
2023-03-02T10:31:08.078Z,31.84
2023-03-02T10:33:14.276Z,31.47
2023-03-02T10:35:21.201Z,33.53
2023-03-02T10:37:26.021Z,34.61
2023-03-02T10:39:28.925Z,35.63
2023-03-02T10:41:36.572Z,35.41
2023-03-02T10:43:46.106Z,36.33
2023-03-02T10:45:59.935Z,36.04
2023-03-02T10:48:04.179Z,35.62
2023-03-02T10:50:22.527Z,32.58
2023-03-02T10:52:26.955Z,32.33
2023-03-02T10:54:31.567Z,34.76
2023-03-02T10:56:35.461Z,35.59
2023-03-02T10:58:38.556Z,37.23
2023-03-02T11:00:43.007Z,35.26
2023-03-02T11:02:53.308Z,35.20
2023-03-02T11:04:58.210Z,33.12
2023-03-02T11:07:09.125Z,35.03
2023-03-02T11:09:15.606Z,35.57
2023-03-02T11:11:23.673Z,36.15
2023-03-02T11:13:29.036Z,35.00
2023-03-02T11:15:40.757Z,36.56
2023-03-02T11:17:47.266Z,36.98
2023-03-02T11:19:52.967Z,34.82
2023-03-02T11:22:00.806Z,34.81
2023-03-02T11:24:12.001Z,37.72
2023-03-02T11:26:21.206Z,37.33
2023-03-02T11:28:38.713Z,36.01
2023-03-02T11:30:48.518Z,36.13
2023-03-02T11:32:58.774Z,36.88
2023-03-02T11:35:05.971Z,35.39
2023-03-02T11:37:18.947Z,36.25
2023-03-02T11:39:26.349Z,35.76
2023-03-02T11:41:31.486Z,35.62
2023-03-02T11:43:34.660Z,38.66
2023-03-02T11:45:43.838Z,37.06
2023-03-02T11:47:57.822Z,35.24
2023-03-02T11:50:11.006Z,35.08
2023-03-02T11:52:20.662Z,37.11
2023-03-02T11:54:34.209Z,36.30
2023-03-02T11:56:39.755Z,36.63
2023-03-02T11:58:43.985Z,36.31
2023-03-02T12:00:48.548Z,37.41
2023-03-02T12:03:00.297Z,38.50
2023-03-02T12:05:07.292Z,38.16
2023-03-02T12:07:19.627Z,38.68
2023-03-02T12:09:35.892Z,39.41
2023-03-02T12:11:40.822Z,38.33
2023-03-02T12:13:44.911Z,37.46
2023-03-02T12:15:48.717Z,37.91
2023-03-02T12:17:52.341Z,38.98
2023-03-02T12:20:07.506Z,39.01
2023-03-02T12:22:12.714Z,37.61
2023-03-02T12:24:27.039Z,37.91
2023-03-02T12:26:35.793Z,38.71
2023-03-02T12:28:40.536Z,38.18
2023-03-02T12:30:43.823Z,37.22
2023-03-02T12:33:00.721Z,37.54
2023-03-02T12:35:12.035Z,37.36
2023-03-02T12:37:18.597Z,38.27
2023-03-02T12:39:31.104Z,39.81
2023-03-02T12:42:08.836Z,40.12
2023-03-02T12:44:24.526Z,39.42
2023-03-02T12:46:30.796Z,39.28
2023-03-02T12:48:44.461Z,40.98
2023-03-02T12:50:48.752Z,40.87
2023-03-02T12:52:58.921Z,41.98
2023-03-02T12:55:04.744Z,40.45
2023-03-02T12:57:19.148Z,41.72
2023-03-02T12:59:25.442Z,41.26
2023-03-02T13:01:29.974Z,40.01
2023-03-02T13:03:32.862Z,40.90
2023-03-02T13:05:36.734Z,42.58
2023-03-02T13:07:43.211Z,43.00
2023-03-02T13:09:56.114Z,42.63
2023-03-02T13:12:00.150Z,41.67
2023-03-02T13:14:19.611Z,42.43
2023-03-02T13:16:24.643Z,40.35
2023-03-02T13:18:32.342Z,41.71
2023-03-02T13:20:35.256Z,42.37
2023-03-02T13:22:38.291Z,40.67
2023-03-02T13:24:46.624Z,41.49
2023-03-02T13:26:55.833Z,41.85
2023-03-02T13:29:05.536Z,41.65
2023-03-02T13:31:20.560Z,41.68
2023-03-02T13:33:25.707Z,41.36
2023-03-02T13:35:31.416Z,40.29
2023-03-02T13:37:37.921Z,40.26
2023-03-02T13:39:41.001Z,41.98
2023-03-02T13:41:54.091Z,41.64
2023-03-02T13:43:57.669Z,41.50
2023-03-02T13:46:03.577Z,41.94
2023-03-02T13:48:17.340Z,42.70
2023-03-02T13:50:22.793Z,42.09
2023-03-02T13:52:27.987Z,40.53
2023-03-02T13:54:32.476Z,41.66
2023-03-02T13:56:38.491Z,40.94
2023-03-02T13:58:41.666Z,42.08
2023-03-02T14:00:44.638Z,41.15
2023-03-02T14:02:50.877Z,41.45
2023-03-02T14:04:54.242Z,41.55
2023-03-02T14:06:57.304Z,40.68
2023-03-02T14:09:00.605Z,41.00
2023-03-02T14:11:04.895Z,42.08
2023-03-02T14:13:11.319Z,39.91
2023-03-02T14:15:16.919Z,41.17
2023-03-02T14:17:24.556Z,41.50
2023-03-02T14:19:28.856Z,40.19
2023-03-02T14:21:32.391Z,40.23
2023-03-02T14:23:35.584Z,41.41
2023-03-02T14:25:38.542Z,39.91
2023-03-02T14:27:43.018Z,41.32
2023-03-02T14:29:47.195Z,41.45
2023-03-02T14:31:50.543Z,40.82
2023-03-02T14:33:53.988Z,41.69
2023-03-02T14:35:59.250Z,41.38
2023-03-02T14:38:02.480Z,40.70
2023-03-02T14:40:15.831Z,40.51
2023-03-02T14:42:21.436Z,42.63
2023-03-02T14:44:25.546Z,42.28
2023-03-02T14:46:28.717Z,42.81
2023-03-02T14:48:31.705Z,43.72
2023-03-02T14:50:39.284Z,43.77
2023-03-02T14:52:46.901Z,42.57
2023-03-02T14:54:53.226Z,42.29
2023-03-02T14:56:56.089Z,42.37
2023-03-02T14:58:59.840Z,44.15
2023-03-02T15:01:02.831Z,44.32
2023-03-02T15:03:05.938Z,43.65
2023-03-02T15:05:09.822Z,45.19
2023-03-02T15:07:14.308Z,44.59
2023-03-02T15:09:18.625Z,44.38
2023-03-02T15:11:21.672Z,44.69
2023-03-02T15:13:24.554Z,45.92
2023-03-02T15:15:27.744Z,45.46
2023-03-02T15:17:30.551Z,46.84
2023-03-02T15:19:33.847Z,46.03
2023-03-02T15:21:36.724Z,47.63
2023-03-02T15:23:40.186Z,47.11
2023-03-02T15:25:44.600Z,48.33
2023-03-02T15:27:47.634Z,48.05
2023-03-02T15:29:50.944Z,48.23
2023-03-02T15:31:53.951Z,48.66
2023-03-02T15:33:57.207Z,50.70
2023-03-02T15:36:01.024Z,51.43
2023-03-02T15:38:04.896Z,49.92
2023-03-02T15:40:10.172Z,51.60
2023-03-02T15:42:14.710Z,50.46
2023-03-02T15:44:24.949Z,51.01
2023-03-02T15:46:28.021Z,49.79
2023-03-02T15:48:31.087Z,51.36
2023-03-02T15:50:33.987Z,51.21
2023-03-02T15:52:36.948Z,51.49
2023-03-02T15:54:40.436Z,51.88
2023-03-02T15:56:45.444Z,51.63
2023-03-02T15:58:50.288Z,51.16
2023-03-02T16:00:57.368Z,51.53
2023-03-02T16:03:00.531Z,53.79
2023-03-02T16:05:03.717Z,53.34
2023-03-02T16:07:06.806Z,53.57
2023-03-02T16:09:09.814Z,53.73
2023-03-02T16:11:13.320Z,53.16
2023-03-02T16:13:16.660Z,54.06
2023-03-02T16:15:21.107Z,54.41
2023-03-02T16:17:24.131Z,55.51
2023-03-02T16:19:27.257Z,55.57
2023-03-02T16:21:30.276Z,55.83
2023-03-02T16:23:33.302Z,56.24
2023-03-02T16:25:40.072Z,57.64
2023-03-02T16:27:47.409Z,57.99
2023-03-02T16:29:50.855Z,58.77
2023-03-02T16:31:55.287Z,58.66
2023-03-02T16:33:59.336Z,58.59
2023-03-02T16:36:02.262Z,59.09
2023-03-02T16:38:06.648Z,59.47
2023-03-02T16:40:11.678Z,59.86
2023-03-02T16:42:15.018Z,60.30
2023-03-02T16:44:18.293Z,60.39
2023-03-02T16:46:23.170Z,60.64
2023-03-02T16:48:27.503Z,60.85
2023-03-02T16:50:30.572Z,61.08
2023-03-02T16:52:33.793Z,61.54
2023-03-02T16:54:36.849Z,62.58
2023-03-02T16:56:41.576Z,62.77
2023-03-02T16:58:44.622Z,63.13
2023-03-02T17:00:47.942Z,63.59
2023-03-02T17:02:51.900Z,63.89
2023-03-02T17:04:56.294Z,64.04
2023-03-02T17:07:00.897Z,66.38
2023-03-02T17:09:04.557Z,66.19
2023-03-02T17:11:07.763Z,66.67
2023-03-02T17:13:12.633Z,64.97
2023-03-02T17:15:15.708Z,66.52
2023-03-02T17:17:18.541Z,66.77
2023-03-02T17:19:27.412Z,66.50
2023-03-02T17:21:31.961Z,67.59
2023-03-02T17:23:34.938Z,67.96
2023-03-02T17:25:37.811Z,67.57
2023-03-02T17:27:40.648Z,68.99
2023-03-02T17:29:43.490Z,67.57
2023-03-02T17:31:46.489Z,68.77
2023-03-02T17:33:49.328Z,68.60
2023-03-02T17:35:52.477Z,68.81
2023-03-02T17:37:57.073Z,70.83
2023-03-02T17:39:59.999Z,71.24
2023-03-02T17:42:02.814Z,70.07
2023-03-02T17:44:06.199Z,71.24
2023-03-02T17:46:11.838Z,69.93
2023-03-02T17:48:14.857Z,70.69
2023-03-02T17:50:18.116Z,69.06
2023-03-02T17:52:22.106Z,70.70
2023-03-02T17:54:26.587Z,70.10
2023-03-02T17:56:30.360Z,69.98
2023-03-02T17:58:44.226Z,72.83
2023-03-02T18:00:47.879Z,72.37
2023-03-02T18:02:52.094Z,72.42
2023-03-02T18:04:55.118Z,72.39
2023-03-02T18:06:58.011Z,72.93
2023-03-02T18:09:00.951Z,73.88
2023-03-02T18:11:06.149Z,73.73
2023-03-02T18:13:09.143Z,74.05
2023-03-02T18:15:12.619Z,74.97
2023-03-02T18:17:15.533Z,74.32
2023-03-02T18:19:18.414Z,75.74
2023-03-02T18:21:22.485Z,75.53
2023-03-02T18:23:25.299Z,75.70
2023-03-02T18:25:29.028Z,75.31
2023-03-02T18:27:33.365Z,76.37
2023-03-02T18:29:36.347Z,76.76
2023-03-02T18:31:39.421Z,77.54
2023-03-02T18:33:42.721Z,77.47
2023-03-02T18:35:45.634Z,76.86
2023-03-02T18:37:48.803Z,78.57
2023-03-02T18:39:51.739Z,78.49
2023-03-02T18:41:54.567Z,78.67
2023-03-02T18:44:01.544Z,79.98
2023-03-02T18:46:05.586Z,78.08
2023-03-02T18:48:08.397Z,77.75
2023-03-02T18:50:12.524Z,79.12
2023-03-02T18:52:16.970Z,78.98
2023-03-02T18:54:19.819Z,79.81
2023-03-02T18:56:23.283Z,79.93
2023-03-02T18:58:26.296Z,78.91
2023-03-02T19:00:31.419Z,79.68
2023-03-02T19:02:34.699Z,79.14
2023-03-02T19:04:37.746Z,78.63
2023-03-02T19:06:40.937Z,78.52
2023-03-02T19:08:44.180Z,79.48
2023-03-02T19:10:47.220Z,81.31
2023-03-02T19:12:50.588Z,79.01
2023-03-02T19:14:55.308Z,80.78
2023-03-02T19:17:03.497Z,80.61
2023-03-02T19:19:07.582Z,79.83
2023-03-02T19:21:10.486Z,79.76
2023-03-02T19:23:14.054Z,80.19
2023-03-02T19:25:17.096Z,79.91
2023-03-02T19:27:20.095Z,79.73
2023-03-02T19:29:23.663Z,80.83
2023-03-02T19:31:27.808Z,80.72
2023-03-02T19:33:32.307Z,80.24
2023-03-02T19:35:35.702Z,80.55
2023-03-02T19:37:38.578Z,80.22
2023-03-02T19:39:42.190Z,80.34
2023-03-02T19:41:45.250Z,80.20
2023-03-02T19:43:49.063Z,81.36
2023-03-02T19:45:52.043Z,79.68
2023-03-02T19:47:57.588Z,80.15
2023-03-02T19:50:02.294Z,80.15
2023-03-02T19:52:05.509Z,79.90
2023-03-02T19:54:08.647Z,78.90
2023-03-02T19:56:13.419Z,78.93
2023-03-02T19:58:20.154Z,80.21
2023-03-02T20:00:24.716Z,79.01
2023-03-02T20:02:27.715Z,79.95
2023-03-02T20:04:30.788Z,79.93
2023-03-02T20:06:35.880Z,79.56
2023-03-02T20:08:39.158Z,79.29
2023-03-02T20:10:43.681Z,80.14
2023-03-02T20:12:46.698Z,79.73
2023-03-02T20:14:50.928Z,79.44
2023-03-02T20:16:53.888Z,80.67
2023-03-02T20:18:58.389Z,81.27
2023-03-02T20:21:01.467Z,80.66
2023-03-02T20:23:05.887Z,81.69
2023-03-02T20:25:09.997Z,81.47
2023-03-02T20:27:13.418Z,81.99
2023-03-02T20:29:17.177Z,81.57
2023-03-02T20:31:20.378Z,81.56
2023-03-02T20:33:27.477Z,82.09
2023-03-02T20:35:33.142Z,81.68
2023-03-02T20:37:36.747Z,82.29
2023-03-02T20:39:43.677Z,81.73
2023-03-02T20:41:46.694Z,81.70
2023-03-02T20:43:49.770Z,82.63
2023-03-02T20:45:52.840Z,83.27
2023-03-02T20:47:55.876Z,84.96
2023-03-02T20:49:59.116Z,85.60
2023-03-02T20:52:02.126Z,84.11
2023-03-02T20:54:06.367Z,84.33
2023-03-02T20:56:13.046Z,83.47
2023-03-02T20:58:16.320Z,83.90
2023-03-02T21:00:25.725Z,83.43
2023-03-02T21:02:28.777Z,84.47
2023-03-02T21:04:31.973Z,84.31
2023-03-02T21:06:35.225Z,84.70
2023-03-02T21:08:41.406Z,85.49
2023-03-02T21:10:45.162Z,85.34
2023-03-02T21:12:49.558Z,85.95
2023-03-02T21:14:52.796Z,84.98
2023-03-02T21:16:55.654Z,84.82
2023-03-02T21:18:59.592Z,84.65
2023-03-02T21:21:03.082Z,84.30
2023-03-02T21:23:06.109Z,84.70
2023-03-02T21:25:10.922Z,84.19
2023-03-02T21:27:14.326Z,84.63
2023-03-02T21:29:20.776Z,85.15
2023-03-02T21:31:23.803Z,85.15
2023-03-02T21:33:27.781Z,85.74
2023-03-02T21:35:31.201Z,84.77
2023-03-02T21:37:34.121Z,84.59
2023-03-02T21:39:37.375Z,84.09
2023-03-02T21:41:40.629Z,83.91
2023-03-02T21:43:43.638Z,84.22
2023-03-02T21:45:48.001Z,83.92
2023-03-02T21:47:51.440Z,85.52
2023-03-02T21:49:54.248Z,85.45
2023-03-02T21:51:57.360Z,85.42
2023-03-02T21:54:00.638Z,85.26
2023-03-02T21:56:03.972Z,85.08
2023-03-02T21:58:07.470Z,85.05
2023-03-02T22:00:18.767Z,85.50
2023-03-02T22:02:23.196Z,86.34
2023-03-02T22:04:26.307Z,86.30
2023-03-02T22:06:33.633Z,86.87
2023-03-02T22:08:37.840Z,87.09
2023-03-02T22:10:42.408Z,87.61
2023-03-02T22:12:45.680Z,88.70
2023-03-02T22:14:48.747Z,88.65
2023-03-02T22:16:52.492Z,88.64
2023-03-02T22:18:58.502Z,88.51
2023-03-02T22:21:02.021Z,88.24
2023-03-02T22:23:13.435Z,87.21
2023-03-02T22:25:18.353Z,86.76
2023-03-02T22:27:24.678Z,86.45
2023-03-02T22:29:30.158Z,86.28
2023-03-02T22:31:33.110Z,86.11
2023-03-02T22:33:37.550Z,86.16
2023-03-02T22:35:42.934Z,86.19
2023-03-02T22:37:45.580Z,86.07
2023-03-02T22:39:50.404Z,85.60
2023-03-02T22:41:59.812Z,85.76
2023-03-02T22:44:03.222Z,85.84
2023-03-02T22:46:15.629Z,86.81
2023-03-02T22:48:21.388Z,86.96
2023-03-02T22:50:26.328Z,87.20
2023-03-02T22:52:37.474Z,88.25
2023-03-02T22:54:40.453Z,88.68
2023-03-02T22:56:47.793Z,89.01
2023-03-02T22:58:52.103Z,89.03
2023-03-02T23:00:55.570Z,88.63
2023-03-02T23:02:58.577Z,88.60
2023-03-02T23:05:01.596Z,87.82
2023-03-02T23:07:14.599Z,87.50
2023-03-02T23:09:22.052Z,86.91
2023-03-02T23:11:25.278Z,86.35
2023-03-02T23:13:40.232Z,86.13
2023-03-02T23:15:43.326Z,86.31
2023-03-02T23:17:49.295Z,85.82
2023-03-02T23:19:52.265Z,86.03
2023-03-02T23:21:55.734Z,86.16
2023-03-02T23:23:58.606Z,86.11
2023-03-02T23:26:03.041Z,86.50
2023-03-02T23:28:06.455Z,87.31
2023-03-02T23:30:10.556Z,86.95
2023-03-02T23:32:13.723Z,86.66
2023-03-02T23:34:16.705Z,86.32
2023-03-02T23:36:21.342Z,86.39
2023-03-02T23:38:24.403Z,87.26
2023-03-02T23:40:27.451Z,87.14
2023-03-02T23:42:31.771Z,87.79
2023-03-02T23:44:34.770Z,87.61
2023-03-02T23:46:37.564Z,87.34
2023-03-02T23:48:41.418Z,87.59
2023-03-02T23:50:45.208Z,87.44
2023-03-02T23:52:48.946Z,87.48
2023-03-02T23:54:51.867Z,86.74
2023-03-02T23:56:54.888Z,87.14
2023-03-02T23:58:59.397Z,87.04
